This is the latest recevied weather packets stored in our database for station/object SQ6PCH-10. If no packets are shown the sender has not sent any weather packets the latest 10 day(s).
| Time | Temp. | Humidity | Pressure | Rain* | Wind** | Luminosity | Snow |
|---|---|---|---|---|---|---|---|
| 1777414582 | 2.78° C | 59% | 1009.9 hPa | - | - | - | - |
| 1777412180 | 3.89° C | 47% | 1009.7 hPa | - | - | - | - |
| 1777411580 | 4.44° C | 45% | 1009.7 hPa | - | - | - | - |
| 1777410980 | 5° C | 43% | 1009.6 hPa | - | - | - | - |
| 1777410380 | 5° C | 43% | 1009.6 hPa | - | - | - | - |
| 1777408579 | 5.56° C | 40% | 1009.7 hPa | - | - | - | - |
| 1777407979 | 5.56° C | 40% | 1009.7 hPa | - | - | - | - |
| 1777407379 | 5.56° C | 39% | 1009.8 hPa | - | - | - | - |
| 1777406779 | 6.11° C | 39% | 1009.8 hPa | - | - | - | - |
| 1777404978 | 6.11° C | 37% | 1009.7 hPa | - | - | - | - |
| 1777404378 | 6.11° C | 36% | 1009.6 hPa | - | - | - | - |
| 1777403778 | 6.67° C | 35% | 1009.5 hPa | - | - | - | - |
| 1777403178 | 7.22° C | 34% | 1009.5 hPa | - | - | - | - |
| 1777400177 | 8.33° C | 30% | 1009.1 hPa | - | - | - | - |
| 1777399577 | 8.89° C | 29% | 1009 hPa | - | - | - | - |
| 1777397776 | 11.67° C | 23% | 1008.7 hPa | - | - | - | - |
| 1777397176 | 12.78° C | 21% | 1008.7 hPa | - | - | - | - |
| 1777396576 | 12.78° C | 20% | 1008.7 hPa | - | - | - | - |
| 1777395976 | 12.22° C | 21% | 1008.6 hPa | - | - | - | - |
| 1777395376 | 14.44° C | 19% | 1008.6 hPa | - | - | - | - |
| 1777393575 | 16.11° C | 16% | 1008.5 hPa | - | - | - | - |
| 1777392975 | 15.56° C | 17% | 1008.5 hPa | - | - | - | - |
| 1777392375 | 16.11° C | 16% | 1008.5 hPa | - | - | - | - |
| 1777390574 | 17.22° C | 16% | 1008.5 hPa | - | - | - | - |
| 1777389974 | 18.33° C | 14% | 1008.6 hPa | - | - | - | - |
* Rain since midnight (hover to see other rain measurements)
** Current wind speed in m/s (hover to see current wind gust speed)